Time;durP1;ratioP1;P1;durP2;ratioP2;P2;SDS_P1;SDS_P2;PMS_P1;PMS_P2;Temp;Humidity;BMP_temperature;BMP_pressure;BME280_temperature;BME280_humidity;BME280_pressure;Samples;Min_cycle;Max_cycle;Signal;HPM_P1;HPM_P2
2022/04/01 00:00:39;;;;;;;;;;;0.50;99.90;;;;;;5008581;28;20298;-76
2022/04/01 00:03:05;;;;;;;;;;;0.60;99.90;;;;;;5006335;28;20007;-77
2022/04/01 00:05:33;;;;;;;;;;;0.60;99.90;;;;;;5008109;28;20015;-76
2022/04/01 00:07:59;;;;;;;;;;;0.60;99.90;;;;;;5005100;28;19922;-76
2022/04/01 00:10:24;;;;;;;;;;;0.70;99.90;;;;;;5011816;28;19921;-76
2022/04/01 00:12:50;;;;;;;;;;;0.70;99.90;;;;;;5010830;28;19929;-76
2022/04/01 00:15:15;;;;;;;;;;;0.70;99.90;;;;;;5010943;28;19925;-77
2022/04/01 00:17:41;;;;;;;;;;;0.80;99.90;;;;;;5008439;28;19921;-76
2022/04/01 00:20:09;;;;;;;;;;;0.80;99.90;;;;;;5009771;28;19933;-76
2022/04/01 00:22:34;;;;;;;;;;;0.80;99.90;;;;;;5009186;28;19983;-77
2022/04/01 00:25:00;;;;;;;;;;;0.80;99.90;;;;;;5009087;28;19929;-77
2022/04/01 00:27:25;;;;;;;;;;;0.90;99.90;;;;;;5008156;28;19921;-76
2022/04/01 00:29:51;;;;;;;;;;;0.90;99.90;;;;;;5008036;28;19921;-76
2022/04/01 00:32:16;;;;;;;;;;;0.90;99.90;;;;;;5007153;28;19925;-76
2022/04/01 00:34:42;;;;;;;;;;;0.90;99.90;;;;;;5008337;28;19929;-76
2022/04/01 00:37:08;;;;;;;;;;;0.90;99.90;;;;;;5010859;28;19921;-76
2022/04/01 00:39:33;;;;;;;;;;;0.90;99.90;;;;;;5008091;28;20310;-77
2022/04/01 00:42:00;;;;;;;;;;;1.00;99.90;;;;;;5011122;28;19925;-77
2022/04/01 00:44:28;;;;;;;;;;;0.90;99.90;;;;;;5009675;28;19921;-76
2022/04/01 00:46:56;;;;;;;;;;;0.90;99.90;;;;;;5009192;28;19921;-76
2022/04/01 00:49:22;;;;;;;;;;;1.00;99.90;;;;;;5008584;28;19960;-76
2022/04/01 00:51:49;;;;;;;;;;;0.90;99.90;;;;;;5007047;28;19921;-77
2022/04/01 00:54:15;;;;;;;;;;;0.90;99.90;;;;;;5008537;28;19925;-76
2022/04/01 00:56:42;;;;;;;;;;;0.90;99.90;;;;;;5007123;28;19991;-76
2022/04/01 00:59:08;;;;;;;;;;;1.00;99.90;;;;;;5022121;28;20011;-76
2022/04/01 01:01:34;;;;;;;;;;;1.00;99.90;;;;;;5007357;28;19925;-76
2022/04/01 01:04:03;;;;;;;;;;;1.00;99.90;;;;;;5005800;28;20379;-76
2022/04/01 01:06:30;;;;;;;;;;;1.10;99.90;;;;;;5005933;28;19925;-76
2022/04/01 01:08:56;;;;;;;;;;;1.10;99.90;;;;;;5007302;28;19921;-76
2022/04/01 01:11:21;;;;;;;;;;;1.10;99.90;;;;;;5010232;28;19928;-76
2022/04/01 01:13:47;;;;;;;;;;;1.10;99.90;;;;;;4993521;28;20287;-77
2022/04/01 01:16:13;;;;;;;;;;;1.10;99.90;;;;;;5006551;28;19936;-76
2022/04/01 01:18:39;;;;;;;;;;;1.20;99.90;;;;;;5008201;28;20558;-76
2022/04/01 01:21:09;;;;;;;;;;;1.10;99.90;;;;;;5024465;28;19921;-77
2022/04/01 01:23:36;;;;;;;;;;;1.20;99.90;;;;;;5024752;28;19956;-77
2022/04/01 01:26:02;;;;;;;;;;;1.20;99.90;;;;;;5007371;28;19976;-76
2022/04/01 01:28:27;;;;;;;;;;;1.30;99.90;;;;;;5006830;28;19932;-77
2022/04/01 01:30:53;;;;;;;;;;;1.30;99.90;;;;;;5008471;28;19944;-77
2022/04/01 01:33:19;;;;;;;;;;;1.20;99.90;;;;;;5007411;28;19925;-76
2022/04/01 01:35:45;;;;;;;;;;;1.20;99.90;;;;;;5004996;28;19949;-77
2022/04/01 01:38:11;;;;;;;;;;;1.30;99.90;;;;;;5009986;28;19968;-76
2022/04/01 01:40:36;;;;;;;;;;;1.30;99.90;;;;;;5008054;28;19929;-76
2022/04/01 01:43:02;;;;;;;;;;;1.20;99.90;;;;;;5010096;28;20402;-76
2022/04/01 01:45:30;;;;;;;;;;;1.20;99.90;;;;;;5008399;28;19921;-76
2022/04/01 01:47:56;;;;;;;;;;;1.20;99.90;;;;;;5025510;28;19933;-77
2022/04/01 01:55:50;;;;;;;;;;;1.30;99.90;;;;;;5007424;28;19928;-76
2022/04/01 01:58:15;;;;;;;;;;;1.30;99.90;;;;;;4990596;28;19921;-76
2022/04/01 02:00:42;;;;;;;;;;;1.20;99.90;;;;;;4988590;28;19951;-76
2022/04/01 02:03:08;;;;;;;;;;;1.20;99.90;;;;;;5004674;28;19922;-76
2022/04/01 02:05:34;;;;;;;;;;;1.10;99.90;;;;;;5006082;28;19992;-76
2022/04/01 02:08:01;;;;;;;;;;;1.10;99.90;;;;;;5023111;28;20351;-76
2022/04/01 02:10:26;;;;;;;;;;;1.10;99.90;;;;;;5008420;28;19971;-76
2022/04/01 02:12:52;;;;;;;;;;;1.10;99.90;;;;;;5008752;28;19971;-76
2022/04/01 02:15:17;;;;;;;;;;;1.10;99.90;;;;;;5008845;28;20248;-76
2022/04/01 02:17:43;;;;;;;;;;;1.10;99.90;;;;;;5005890;28;20016;-77
2022/04/01 02:20:11;;;;;;;;;;;1.10;99.90;;;;;;5005810;28;19936;-77
2022/04/01 02:22:37;;;;;;;;;;;1.00;99.90;;;;;;5006379;28;20418;-76
2022/04/01 02:25:04;;;;;;;;;;;1.00;99.90;;;;;;5005697;28;19921;-76
2022/04/01 02:27:30;;;;;;;;;;;1.00;99.90;;;;;;5003329;28;20375;-77
2022/04/01 02:29:56;;;;;;;;;;;1.00;99.90;;;;;;5004503;28;20299;-76
2022/04/01 02:32:23;;;;;;;;;;;1.00;99.90;;;;;;5002751;28;19922;-76
2022/04/01 02:34:49;;;;;;;;;;;1.00;99.90;;;;;;5010263;28;19925;-76
2022/04/01 02:37:15;;;;;;;;;;;1.00;99.90;;;;;;5012334;28;20283;-76
2022/04/01 02:39:41;;;;;;;;;;;1.00;99.90;;;;;;5028956;28;19932;-76
2022/04/01 02:42:06;;;;;;;;;;;1.00;99.90;;;;;;5010166;28;19928;-76
2022/04/01 02:44:33;;;;;;;;;;;1.00;99.90;;;;;;4995928;28;19980;-76
2022/04/01 02:46:58;;;;;;;;;;;1.00;99.90;;;;;;5012929;28;19921;-77
2022/04/01 02:49:24;;;;;;;;;;;1.10;99.90;;;;;;4993104;28;20343;-76
2022/04/01 02:51:53;;;;;;;;;;;1.10;99.90;;;;;;5009736;28;19925;-76
2022/04/01 02:54:20;;;;;;;;;;;1.10;99.90;;;;;;5010283;28;19975;-76
2022/04/01 02:56:46;;;;;;;;;;;1.20;99.90;;;;;;5007250;28;19929;-76
2022/04/01 02:59:11;;;;;;;;;;;1.20;99.90;;;;;;5027106;28;19925;-76
2022/04/01 03:01:38;;;;;;;;;;;1.20;99.90;;;;;;5010106;28;20271;-76
2022/04/01 03:04:04;;;;;;;;;;;1.20;99.90;;;;;;5010808;28;19921;-76
2022/04/01 03:06:30;;;;;;;;;;;1.20;99.90;;;;;;5012867;28;19922;-77
2022/04/01 03:08:55;;;;;;;;;;;1.30;99.90;;;;;;5012694;28;19925;-76
2022/04/01 03:11:21;;;;;;;;;;;1.30;99.90;;;;;;5028371;28;19959;-76
2022/04/01 03:13:46;;;;;;;;;;;1.30;99.90;;;;;;4995910;28;19928;-76
2022/04/01 03:16:12;;;;;;;;;;;1.30;99.90;;;;;;4997028;28;20307;-76
2022/04/01 03:18:40;;;;;;;;;;;1.30;99.90;;;;;;5011261;28;19921;-76
2022/04/01 03:21:06;;;;;;;;;;;1.20;99.90;;;;;;4994593;28;19931;-77
2022/04/01 03:23:32;;;;;;;;;;;1.30;99.90;;;;;;5010223;28;19921;-76
2022/04/01 03:25:58;;;;;;;;;;;1.30;99.90;;;;;;5009084;28;19928;-76
2022/04/01 03:28:23;;;;;;;;;;;1.30;99.90;;;;;;5010563;28;19967;-76
2022/04/01 03:30:51;;;;;;;;;;;1.30;99.90;;;;;;5024211;28;19930;-77
2022/04/01 03:33:17;;;;;;;;;;;1.30;99.90;;;;;;5007318;28;20394;-76
2022/04/01 03:35:43;;;;;;;;;;;1.30;99.90;;;;;;5010751;28;19921;-76
2022/04/01 03:38:11;;;;;;;;;;;1.30;99.90;;;;;;5011292;28;19932;-76
2022/04/01 03:40:38;;;;;;;;;;;1.30;99.90;;;;;;5009963;28;20121;-77
2022/04/01 03:43:05;;;;;;;;;;;1.40;99.90;;;;;;5012700;28;20307;-76
2022/04/01 03:45:31;;;;;;;;;;;1.40;99.90;;;;;;5009442;28;19921;-76
2022/04/01 03:48:03;;;;;;;;;;;1.40;99.90;;;;;;5010825;28;20051;-76
2022/04/01 03:50:33;;;;;;;;;;;1.40;99.90;;;;;;5011407;28;20022;-76
2022/04/01 03:53:06;;;;;;;;;;;1.40;99.90;;;;;;5008735;28;19940;-76
2022/04/01 03:55:33;;;;;;;;;;;1.50;99.90;;;;;;5009054;28;20003;-76
2022/04/01 03:58:01;;;;;;;;;;;1.50;99.90;;;;;;5051108;22;19925;-78
2022/04/01 04:00:27;;;;;;;;;;;1.50;99.90;;;;;;5038376;28;19931;-78
2022/04/01 04:02:53;;;;;;;;;;;1.50;99.90;;;;;;5037550;28;19925;-78
2022/04/01 04:05:20;;;;;;;;;;;1.50;99.90;;;;;;5045361;28;19927;-78
2022/04/01 04:07:46;;;;;;;;;;;1.50;99.90;;;;;;5040716;28;19920;-78
2022/04/01 04:10:12;;;;;;;;;;;1.50;99.90;;;;;;5037390;28;19943;-78
2022/04/01 04:12:38;;;;;;;;;;;1.50;99.90;;;;;;5056645;28;19936;-78
2022/04/01 04:15:04;;;;;;;;;;;1.50;99.90;;;;;;5038581;28;19939;-78
2022/04/01 04:17:36;;;;;;;;;;;1.50;99.90;;;;;;5035212;28;19921;-78
2022/04/01 04:20:09;;;;;;;;;;;1.50;99.90;;;;;;5043852;28;19943;-78
2022/04/01 04:22:49;;;;;;;;;;;1.50;99.90;;;;;;5038320;28;20048;-78
2022/04/01 04:25:15;;;;;;;;;;;1.50;99.90;;;;;;5036537;28;19920;-78
2022/04/01 04:27:48;;;;;;;;;;;1.50;99.90;;;;;;5031539;28;20401;-78
2022/04/01 04:30:13;;;;;;;;;;;1.50;99.90;;;;;;5033505;28;20038;-78
2022/04/01 04:32:43;;;;;;;;;;;1.50;99.90;;;;;;5038204;28;19947;-78
2022/04/01 04:35:09;;;;;;;;;;;1.50;99.90;;;;;;5035046;28;19920;-78
2022/04/01 04:37:36;;;;;;;;;;;1.50;99.90;;;;;;5043100;28;20430;-78
2022/04/01 04:40:02;;;;;;;;;;;1.50;99.90;;;;;;5036421;28;19951;-78
2022/04/01 04:42:29;;;;;;;;;;;1.50;99.90;;;;;;5036141;28;19928;-78
2022/04/01 04:44:55;;;;;;;;;;;1.50;99.90;;;;;;5032958;28;19921;-78
2022/04/01 04:47:28;;;;;;;;;;;1.50;99.90;;;;;;5037756;28;19929;-78
2022/04/01 04:49:56;;;;;;;;;;;1.50;99.90;;;;;;5042104;28;20398;-78
2022/04/01 04:52:23;;;;;;;;;;;1.50;99.90;;;;;;5042284;28;20273;-78
2022/04/01 04:54:50;;;;;;;;;;;1.50;99.90;;;;;;5055094;28;19920;-78
2022/04/01 04:57:19;;;;;;;;;;;1.60;99.90;;;;;;5034185;28;19921;-78
2022/04/01 04:59:45;;;;;;;;;;;1.60;99.90;;;;;;5041775;28;20309;-78
2022/04/01 05:02:14;;;;;;;;;;;1.60;99.90;;;;;;5024321;28;20011;-77
2022/04/01 05:04:42;;;;;;;;;;;1.60;99.90;;;;;;5023625;28;19928;-77
2022/04/01 05:07:29;;;;;;;;;;;1.60;99.90;;;;;;5036817;28;19925;-77
2022/04/01 05:10:03;;;;;;;;;;;1.60;99.90;;;;;;5041483;28;20493;-78
2022/04/01 05:12:31;;;;;;;;;;;1.60;99.90;;;;;;5035839;28;19921;-77
2022/04/01 05:15:04;;;;;;;;;;;1.60;99.90;;;;;;5045672;28;20212;-77
2022/04/01 05:17:37;;;;;;;;;;;1.70;99.90;;;;;;5041464;28;19928;-78
2022/04/01 05:20:15;;;;;;;;;;;1.60;99.90;;;;;;5039134;28;19956;-78
2022/04/01 05:22:43;;;;;;;;;;;1.60;99.90;;;;;;5040418;28;20381;-78
2022/04/01 05:25:12;;;;;;;;;;;1.60;99.90;;;;;;5026735;28;19921;-78
2022/04/01 05:27:40;;;;;;;;;;;1.60;99.90;;;;;;5019972;28;19940;-78
2022/04/01 05:30:12;;;;;;;;;;;1.60;99.90;;;;;;5035488;28;20003;-78
2022/04/01 05:32:39;;;;;;;;;;;1.70;99.90;;;;;;5034776;28;19929;-78
2022/04/01 05:35:04;;;;;;;;;;;1.70;99.90;;;;;;5031568;28;20070;-78
2022/04/01 05:37:31;;;;;;;;;;;1.70;99.90;;;;;;5040074;28;20018;-78
2022/04/01 05:39:58;;;;;;;;;;;1.60;99.90;;;;;;5036069;28;20046;-78
2022/04/01 05:42:25;;;;;;;;;;;1.70;99.90;;;;;;5041780;28;19921;-78
2022/04/01 05:44:51;;;;;;;;;;;1.70;99.90;;;;;;5036522;28;19921;-78
2022/04/01 05:47:17;;;;;;;;;;;1.70;99.90;;;;;;5035325;28;20008;-78
2022/04/01 05:49:44;;;;;;;;;;;1.70;99.90;;;;;;5038742;28;20054;-78
2022/04/01 05:52:10;;;;;;;;;;;1.70;99.90;;;;;;5039510;28;19920;-78
2022/04/01 05:54:37;;;;;;;;;;;1.80;99.90;;;;;;5033953;28;19921;-78
2022/04/01 05:57:03;;;;;;;;;;;1.70;99.90;;;;;;5041718;28;19921;-78
2022/04/01 05:59:29;;;;;;;;;;;1.80;99.90;;;;;;5033354;28;20298;-78
2022/04/01 06:02:09;;;;;;;;;;;1.80;99.90;;;;;;5032269;28;19921;-78
2022/04/01 06:04:51;;;;;;;;;;;1.80;99.90;;;;;;5033792;28;19921;-78
2022/04/01 06:07:25;;;;;;;;;;;1.80;99.90;;;;;;5042432;28;20382;-78
2022/04/01 06:09:54;;;;;;;;;;;1.80;99.90;;;;;;5038925;28;20442;-78
2022/04/01 06:12:43;;;;;;;;;;;1.90;99.90;;;;;;5041442;28;19946;-78
2022/04/01 06:15:08;;;;;;;;;;;1.90;99.90;;;;;;5037868;28;19921;-78
2022/04/01 06:17:42;;;;;;;;;;;1.90;99.90;;;;;;5039434;28;19927;-78
2022/04/01 06:20:07;;;;;;;;;;;1.90;99.90;;;;;;5029703;28;19929;-79
2022/04/01 06:22:34;;;;;;;;;;;1.90;99.90;;;;;;5033698;28;19921;-78
2022/04/01 06:25:02;;;;;;;;;;;2.00;99.90;;;;;;5036587;28;20358;-79
2022/04/01 06:27:36;;;;;;;;;;;2.00;99.90;;;;;;5033512;28;19921;-78
2022/04/01 06:30:05;;;;;;;;;;;2.00;99.90;;;;;;5042539;28;19994;-78
2022/04/01 06:32:49;;;;;;;;;;;2.00;99.90;;;;;;5031543;28;19920;-78
2022/04/01 06:35:27;;;;;;;;;;;2.10;99.90;;;;;;5038639;28;19927;-78
2022/04/01 06:37:52;;;;;;;;;;;2.10;99.90;;;;;;5041658;28;19927;-79
2022/04/01 06:40:21;;;;;;;;;;;2.20;99.90;;;;;;5042136;28;19925;-79
2022/04/01 06:42:47;;;;;;;;;;;2.20;99.90;;;;;;5045059;28;19921;-78
2022/04/01 06:45:16;;;;;;;;;;;2.20;99.90;;;;;;5040853;28;20026;-79
2022/04/01 06:47:44;;;;;;;;;;;2.20;99.90;;;;;;5037500;28;19947;-79
2022/04/01 06:50:10;;;;;;;;;;;2.30;99.90;;;;;;5023741;28;19924;-79
2022/04/01 06:52:35;;;;;;;;;;;2.20;99.90;;;;;;5041360;28;20289;-79
2022/04/01 06:55:01;;;;;;;;;;;2.30;99.90;;;;;;5035079;28;20446;-79
2022/04/01 06:57:26;;;;;;;;;;;2.30;99.90;;;;;;5059888;28;19920;-79
2022/04/01 06:59:52;;;;;;;;;;;2.30;99.90;;;;;;5037621;28;19924;-78
2022/04/01 07:02:18;;;;;;;;;;;2.30;99.90;;;;;;5031918;28;20007;-78
2022/04/01 07:04:43;;;;;;;;;;;2.30;99.90;;;;;;5050014;28;20367;-78
2022/04/01 07:07:09;;;;;;;;;;;2.30;99.90;;;;;;5040965;28;19935;-79
2022/04/01 07:09:37;;;;;;;;;;;2.30;99.90;;;;;;5037824;28;19920;-78
2022/04/01 07:12:03;;;;;;;;;;;2.30;99.90;;;;;;5038282;28;19921;-81
2022/04/01 07:14:28;;;;;;;;;;;2.30;99.90;;;;;;5032552;28;19958;-81
2022/04/01 07:16:54;;;;;;;;;;;2.40;99.90;;;;;;5044014;28;19929;-82
2022/04/01 07:19:20;;;;;;;;;;;2.40;99.90;;;;;;5037447;28;19970;-81
2022/04/01 07:21:45;;;;;;;;;;;2.40;99.90;;;;;;5051888;28;20447;-81
2022/04/01 07:24:11;;;;;;;;;;;2.40;99.90;;;;;;5051022;28;19928;-82
2022/04/01 07:26:36;;;;;;;;;;;2.30;99.90;;;;;;5041463;28;19987;-82
2022/04/01 07:29:02;;;;;;;;;;;2.30;99.90;;;;;;5050146;28;19969;-81
2022/04/01 07:34:12;;;;;;;;;;;2.40;99.90;;;;;;5045925;28;20442;-81
2022/04/01 07:36:37;;;;;;;;;;;2.40;99.90;;;;;;5041812;28;19921;-82
2022/04/01 07:39:03;;;;;;;;;;;2.30;99.90;;;;;;5050537;28;20028;-82
2022/04/01 07:41:34;;;;;;;;;;;2.40;99.90;;;;;;5045394;28;19928;-82
2022/04/01 07:44:01;;;;;;;;;;;2.40;99.90;;;;;;5048539;28;20412;-81
2022/04/01 07:46:26;;;;;;;;;;;2.40;99.90;;;;;;5038376;28;19974;-80
2022/04/01 07:48:52;;;;;;;;;;;2.40;99.90;;;;;;5040413;28;19986;-81
2022/04/01 07:51:18;;;;;;;;;;;2.40;99.90;;;;;;5042015;28;19929;-80
2022/04/01 07:53:43;;;;;;;;;;;2.40;99.90;;;;;;5046483;28;19928;-81
2022/04/01 07:56:09;;;;;;;;;;;2.40;99.90;;;;;;5039778;28;19921;-80
2022/04/01 07:58:35;;;;;;;;;;;2.40;99.90;;;;;;5045227;28;19951;-80
2022/04/01 08:01:00;;;;;;;;;;;2.40;99.90;;;;;;5038753;28;19956;-81
2022/04/01 08:03:25;;;;;;;;;;;2.40;99.90;;;;;;5018801;28;19976;-81
2022/04/01 08:05:51;;;;;;;;;;;2.50;99.90;;;;;;5034536;28;20459;-81
2022/04/01 08:08:19;;;;;;;;;;;2.50;99.90;;;;;;5047906;28;19921;-81
2022/04/01 08:10:44;;;;;;;;;;;2.60;99.90;;;;;;5038844;28;19931;-80
2022/04/01 08:13:11;;;;;;;;;;;2.60;99.90;;;;;;5039570;28;20332;-81
2022/04/01 08:15:36;;;;;;;;;;;2.60;99.90;;;;;;5039067;28;19945;-82
2022/04/01 08:18:02;;;;;;;;;;;2.60;99.90;;;;;;5039736;28;20383;-81
2022/04/01 08:20:28;;;;;;;;;;;2.60;99.90;;;;;;5023442;28;19979;-81
2022/04/01 08:22:53;;;;;;;;;;;2.60;99.90;;;;;;5024136;28;19927;-81
2022/04/01 08:25:19;;;;;;;;;;;2.60;99.90;;;;;;5023980;28;19928;-82
2022/04/01 08:27:45;;;;;;;;;;;2.70;99.90;;;;;;5025296;28;20356;-82
2022/04/01 08:30:10;;;;;;;;;;;2.70;99.90;;;;;;5043353;28;19921;-81
2022/04/01 08:32:37;;;;;;;;;;;2.80;99.90;;;;;;5061016;28;19920;-81
2022/04/01 08:35:03;;;;;;;;;;;2.70;99.90;;;;;;5042627;28;19920;-81
2022/04/01 08:37:29;;;;;;;;;;;2.70;99.90;;;;;;5039171;28;19936;-82
2022/04/01 08:39:55;;;;;;;;;;;2.70;99.90;;;;;;5039808;28;19925;-84
2022/04/01 08:42:20;;;;;;;;;;;2.80;99.90;;;;;;5039018;28;20406;-81
2022/04/01 08:44:46;;;;;;;;;;;2.80;99.90;;;;;;5042694;28;20362;-81
2022/04/01 08:47:12;;;;;;;;;;;2.80;99.90;;;;;;5027476;28;19924;-82
2022/04/01 08:49:38;;;;;;;;;;;2.80;99.90;;;;;;5043288;28;19966;-82
2022/04/01 08:52:04;;;;;;;;;;;2.80;99.90;;;;;;5041535;28;20075;-82
2022/04/01 08:54:34;;;;;;;;;;;2.90;99.90;;;;;;5039374;28;19924;-81
2022/04/01 08:57:00;;;;;;;;;;;2.90;99.90;;;;;;5030505;28;19921;-81
2022/04/01 08:59:29;;;;;;;;;;;2.90;99.90;;;;;;5034964;28;20608;-80
2022/04/01 09:02:01;;;;;;;;;;;2.80;99.90;;;;;;5020953;28;19921;-82
2022/04/01 09:04:27;;;;;;;;;;;2.90;99.90;;;;;;5038261;28;19921;-82
2022/04/01 09:06:52;;;;;;;;;;;2.80;99.90;;;;;;5039774;28;20291;-81
2022/04/01 09:09:24;;;;;;;;;;;2.90;99.90;;;;;;5036903;28;20019;-82
2022/04/01 09:12:09;;;;;;;;;;;2.80;99.90;;;;;;5032098;28;20279;-81
2022/04/01 09:14:35;;;;;;;;;;;2.70;99.90;;;;;;5031137;28;19924;-80
2022/04/01 09:17:01;;;;;;;;;;;2.70;99.90;;;;;;5028630;28;19925;-83
2022/04/01 09:19:35;;;;;;;;;;;2.70;99.90;;;;;;5043258;28;19924;-82
2022/04/01 09:22:19;;;;;;;;;;;2.80;99.90;;;;;;5035072;28;19920;-82
2022/04/01 09:24:54;;;;;;;;;;;2.80;99.90;;;;;;5037529;28;19928;-81
2022/04/01 09:27:35;;;;;;;;;;;2.90;99.90;;;;;;5023988;28;19921;-82
2022/04/01 09:30:00;;;;;;;;;;;2.90;99.90;;;;;;5041340;28;19921;-81
2022/04/01 09:32:35;;;;;;;;;;;3.00;99.90;;;;;;5015648;28;20259;-81
2022/04/01 09:35:01;;;;;;;;;;;3.00;99.90;;;;;;5053963;28;19927;-81
2022/04/01 09:37:36;;;;;;;;;;;3.10;99.90;;;;;;5034661;28;19920;-78
2022/04/01 09:40:02;;;;;;;;;;;3.10;99.90;;;;;;5033918;28;20003;-77
2022/04/01 09:42:28;;;;;;;;;;;3.20;99.90;;;;;;5036389;28;20012;-78
2022/04/01 09:44:57;;;;;;;;;;;3.20;99.90;;;;;;5035730;28;19936;-78
2022/04/01 09:47:22;;;;;;;;;;;3.30;99.90;;;;;;5035036;28;20334;-79
2022/04/01 09:49:48;;;;;;;;;;;3.40;99.90;;;;;;5034531;28;20400;-79
2022/04/01 09:52:20;;;;;;;;;;;3.40;99.90;;;;;;5045696;28;19924;-79
2022/04/01 09:54:49;;;;;;;;;;;3.50;99.90;;;;;;5036450;28;19924;-80
2022/04/01 10:35:27;;;;;;;;;;;3.30;99.90;;;;;;4933711;29;19926;-76
2022/04/01 20:58:22;;;;;;;;;;;;;;;;;;;;;
2022/04/01 21:07:25;;;;;;;;;;;2.70;99.90;;;;;;4988651;28;19926;-75
2022/04/01 21:09:52;;;;;;;;;;;2.60;99.90;;;;;;4990482;28;20029;-75
2022/04/01 21:12:20;;;;;;;;;;;2.60;99.90;;;;;;4992204;28;19921;-75
2022/04/01 21:14:46;;;;;;;;;;;2.60;99.90;;;;;;4986345;28;19922;-75
2022/04/01 21:17:13;;;;;;;;;;;2.60;99.90;;;;;;4972315;28;20268;-75
2022/04/01 21:19:39;;;;;;;;;;;2.60;99.90;;;;;;4969462;28;19929;-75
2022/04/01 21:22:05;;;;;;;;;;;2.50;99.90;;;;;;4955013;28;19925;-75
2022/04/01 21:24:32;;;;;;;;;;;2.60;99.90;;;;;;4972424;28;20395;-75
2022/04/01 21:29:42;;;;;;;;;;;2.50;99.90;;;;;;4972337;28;20287;-75
2022/04/01 21:32:08;;;;;;;;;;;2.50;99.90;;;;;;4971421;28;19922;-76
2022/04/01 21:34:33;;;;;;;;;;;2.50;99.90;;;;;;4967346;28;19947;-75
2022/04/01 21:36:59;;;;;;;;;;;2.50;99.90;;;;;;4965578;28;19936;-75
2022/04/01 21:39:24;;;;;;;;;;;2.50;99.90;;;;;;4952021;28;20024;-75
2022/04/01 21:41:49;;;;;;;;;;;2.50;99.90;;;;;;4969199;28;19933;-75
2022/04/01 21:44:15;;;;;;;;;;;2.50;99.90;;;;;;4969197;28;20207;-75
2022/04/01 21:46:41;;;;;;;;;;;2.50;99.90;;;;;;4953987;28;19972;-75
2022/04/01 21:49:06;;;;;;;;;;;2.40;99.90;;;;;;4968825;28;19933;-75
2022/04/01 21:51:32;;;;;;;;;;;2.50;99.90;;;;;;4971002;28;19922;-75
2022/04/01 21:53:58;;;;;;;;;;;2.40;99.90;;;;;;4969218;28;20000;-75
2022/04/01 21:56:24;;;;;;;;;;;2.50;99.90;;;;;;4970455;28;20323;-75
2022/04/01 21:58:50;;;;;;;;;;;2.30;99.90;;;;;;4971344;28;19949;-75
2022/04/01 22:01:34;;;;;;;;;;;2.40;99.90;;;;;;4956071;28;19960;-75
2022/04/01 22:04:00;;;;;;;;;;;2.40;99.90;;;;;;4969251;28;19921;-75
2022/04/01 22:06:25;;;;;;;;;;;2.30;99.90;;;;;;4971271;28;20431;-75
2022/04/01 22:08:51;;;;;;;;;;;2.30;99.90;;;;;;4971353;28;19922;-76
2022/04/01 22:11:17;;;;;;;;;;;2.30;99.90;;;;;;4970415;28;19922;-75
2022/04/01 22:13:44;;;;;;;;;;;2.30;99.90;;;;;;4967333;28;20082;-76
2022/04/01 22:16:09;;;;;;;;;;;2.40;99.90;;;;;;4951987;28;19933;-75
2022/04/01 22:18:35;;;;;;;;;;;2.30;99.90;;;;;;4964418;28;20262;-75
2022/04/01 22:21:00;;;;;;;;;;;2.20;99.90;;;;;;4967342;28;19926;-75
2022/04/01 22:23:26;;;;;;;;;;;2.20;99.90;;;;;;4970468;28;19921;-75
2022/04/01 22:25:51;;;;;;;;;;;2.30;99.90;;;;;;4968203;28;20703;-75
2022/04/01 22:28:16;;;;;;;;;;;2.20;99.90;;;;;;4969394;28;20391;-75
2022/04/01 22:30:43;;;;;;;;;;;2.20;99.90;;;;;;4969403;28;19930;-75
2022/04/01 22:33:08;;;;;;;;;;;2.20;99.90;;;;;;4969618;28;20332;-75
2022/04/01 22:35:34;;;;;;;;;;;2.20;99.90;;;;;;4967453;28;19976;-75
2022/04/01 22:37:59;;;;;;;;;;;2.20;99.90;;;;;;4968170;28;19934;-75
2022/04/01 22:40:27;;;;;;;;;;;2.20;99.90;;;;;;4970676;28;19965;-75
2022/04/01 22:42:53;;;;;;;;;;;2.10;99.90;;;;;;4968942;28;19922;-75
2022/04/01 22:45:18;;;;;;;;;;;2.10;99.90;;;;;;4970769;28;19968;-75
2022/04/01 22:47:44;;;;;;;;;;;2.10;99.90;;;;;;4968835;28;19981;-75
2022/04/01 22:50:09;;;;;;;;;;;2.10;99.90;;;;;;4972394;28;20406;-75
2022/04/01 22:52:35;;;;;;;;;;;2.10;99.90;;;;;;4972952;28;19922;-75
2022/04/01 22:55:01;;;;;;;;;;;2.00;99.90;;;;;;4973541;28;19976;-75
2022/04/01 22:57:27;;;;;;;;;;;2.00;99.90;;;;;;4974044;28;19928;-75
2022/04/01 22:59:53;;;;;;;;;;;2.00;99.90;;;;;;4974506;28;19930;-75
2022/04/01 23:02:19;;;;;;;;;;;1.90;99.90;;;;;;4973536;28;19969;-75
2022/04/01 23:04:46;;;;;;;;;;;1.90;99.90;;;;;;4971777;28;19961;-75
2022/04/01 23:07:12;;;;;;;;;;;1.90;99.90;;;;;;4972837;28;19922;-75
2022/04/01 23:09:38;;;;;;;;;;;1.80;99.90;;;;;;4955902;28;19930;-75
2022/04/01 23:12:04;;;;;;;;;;;1.80;99.90;;;;;;4973841;28;19967;-75
2022/04/01 23:14:30;;;;;;;;;;;1.70;99.90;;;;;;4972170;28;19973;-75
2022/04/01 23:16:55;;;;;;;;;;;1.80;99.90;;;;;;4970566;28;19922;-75
2022/04/01 23:19:24;;;;;;;;;;;1.70;99.90;;;;;;4975143;28;21171;-75
2022/04/01 23:21:50;;;;;;;;;;;1.70;99.90;;;;;;4956035;28;20000;-75
2022/04/01 23:24:15;;;;;;;;;;;1.70;99.90;;;;;;4971060;28;19922;-75
2022/04/01 23:26:41;;;;;;;;;;;1.60;99.90;;;;;;4972795;28;20426;-76
2022/04/01 23:29:10;;;;;;;;;;;1.60;99.90;;;;;;4971203;28;19999;-75
2022/04/01 23:31:36;;;;;;;;;;;1.50;99.90;;;;;;4986834;28;20013;-75
2022/04/01 23:34:01;;;;;;;;;;;1.50;99.90;;;;;;4973605;28;20376;-75
2022/04/01 23:36:27;;;;;;;;;;;1.40;99.90;;;;;;4974362;28;20307;-75
2022/04/01 23:38:52;;;;;;;;;;;1.40;99.90;;;;;;4971213;28;19930;-75
2022/04/01 23:41:18;;;;;;;;;;;1.40;99.90;;;;;;4972264;28;19926;-75
2022/04/01 23:43:44;;;;;;;;;;;1.30;99.90;;;;;;4969432;28;19930;-75
2022/04/01 23:46:09;;;;;;;;;;;1.30;99.90;;;;;;4972749;28;20335;-75
2022/04/01 23:48:34;;;;;;;;;;;1.30;99.90;;;;;;4972680;28;19921;-75
2022/04/01 23:51:00;;;;;;;;;;;1.30;99.90;;;;;;4972050;28;20396;-75
2022/04/01 23:53:27;;;;;;;;;;;1.20;99.90;;;;;;4971562;28;19936;-75
2022/04/01 23:55:53;;;;;;;;;;;1.20;99.90;;;;;;4972002;28;19929;-75
2022/04/01 23:58:18;;;;;;;;;;;1.20;99.90;;;;;;4972327;28;19921;-75
